PWSweather.com
Personal Weather Stations
Station Observations
KCTHAMDEN
Dunbar Hill, Hamden, CT 06514

Dunbar HillHamden, CT 06514

Lat: 41.365437, Lon: -72.956532

Elevation: 200

Station Type: Davis Vantage Pro2+

www.hamdenweather.com

High Low Average
Temperature 86.6°F30.3°C 68.3°F20.2°C 75.1°F23.9°C
Dew Point 78.6°F25.9°C 65.5°F18.6°C 72.5°F22.5°C
Winds 4.4 mph 7.1 kmh Calm Calm 1.0 mph SE1.6 kmh SE
Wind Gusts 11.0 mph17.7 kmh -- 1.0 mph1.6 kmh
Humidity 98% 75% 92%
Pressure 29.93 in1013.5 mb 29.75 in1007.5 mb -
Precipitation 0.82 in20.8 mm - -
Hour Temp Dew Point Humidity Winds Wind Gusts Pressure Precip Precip Rate Daily Precip Total
12:00 AM 73.1°F22.8°C 71.6°F22.0°C 95% 0.4 mph SSE0.6 kmh SSE 2.0 mph3.2 kmh 29.93 in1013.5 mb - 0.03 in0.8 mm 0.07 in1.8 mm
12:15 AM 73.0°F22.8°C 71.5°F21.9°C 95% 1.5 mph ESE2.4 kmh ESE 2.0 mph3.2 kmh 29.93 in1013.5 mb - 0.03 in0.8 mm 0.10 in2.5 mm
12:30 AM 72.8°F22.7°C 71.3°F21.8°C 95% 1.3 mph WSW2.1 kmh WSW 6.0 mph9.7 kmh 29.92 in1013.2 mb - 0.23 in5.8 mm 0.32 in8.1 mm
12:45 AM 72.3°F22.4°C 70.7°F21.5°C 95% 0.5 mph ENE0.8 kmh ENE 2.0 mph3.2 kmh 29.91 in1012.9 mb - 0.30 in7.6 mm 0.58 in14.7 mm
01:00 AM 72.2°F22.3°C 70.6°F21.4°C 95% Calm Calm -- 29.90 in1012.5 mb - 0.17 in4.3 mm 0.75 in19.1 mm
01:15 AM 72.1°F22.3°C 70.9°F21.6°C 96% Calm Calm -- 29.89 in1012.2 mb - 0.02 in0.5 mm 0.76 in19.3 mm
01:30 AM 72.1°F22.3°C 70.9°F21.6°C 96% Calm Calm -- 29.88 in1011.9 mb - 0.01 in0.3 mm 0.77 in19.6 mm
01:45 AM 72.0°F22.2°C 70.8°F21.6°C 96% Calm Calm -- 29.88 in1011.9 mb - 0.00 in0.0 mm 0.77 in19.6 mm
02:00 AM 71.8°F22.1°C 70.6°F21.4°C 96% Calm Calm -- 29.87 in1011.5 mb - 0.00 in0.0 mm 0.77 in19.6 mm
02:15 AM 71.7°F22.1°C 70.5°F21.4°C 96% Calm Calm -- 29.86 in1011.2 mb - 0.00 in0.0 mm 0.77 in19.6 mm
02:30 AM 71.5°F21.9°C 70.3°F21.3°C 96% Calm Calm -- 29.86 in1011.2 mb - 0.00 in0.0 mm 0.77 in19.6 mm
02:45 AM 71.4°F21.9°C 70.2°F21.2°C 96% Calm Calm -- 29.86 in1011.2 mb - 0.00 in0.0 mm 0.77 in19.6 mm
03:00 AM 71.3°F21.8°C 70.1°F21.2°C 96% Calm Calm -- 29.86 in1011.2 mb - 0.00 in0.0 mm 0.77 in19.6 mm
03:15 AM 71.4°F21.9°C 70.2°F21.2°C 96% Calm Calm -- 29.86 in1011.2 mb - 0.00 in0.0 mm 0.77 in19.6 mm
03:30 AM 71.6°F22.0°C 70.7°F21.5°C 97% Calm Calm -- 29.86 in1011.2 mb - 0.00 in0.0 mm 0.77 in19.6 mm
03:45 AM 71.9°F22.2°C 71.0°F21.7°C 97% Calm Calm -- 29.86 in1011.2 mb - 0.00 in0.0 mm 0.77 in19.6 mm
04:00 AM 72.1°F22.3°C 71.2°F21.8°C 97% Calm Calm -- 29.86 in1011.2 mb - 0.00 in0.0 mm 0.77 in19.6 mm
04:15 AM 72.2°F22.3°C 71.3°F21.8°C 97% Calm Calm -- 29.86 in1011.2 mb - 0.00 in0.0 mm 0.77 in19.6 mm
04:30 AM 72.2°F22.3°C 71.3°F21.8°C 97% Calm Calm -- 29.86 in1011.2 mb - 0.00 in0.0 mm 0.77 in19.6 mm
04:45 AM 72.2°F22.3°C 71.3°F21.8°C 97% Calm Calm -- 29.86 in1011.2 mb - 0.00 in0.0 mm 0.77 in19.6 mm
05:00 AM 72.2°F22.3°C 71.3°F21.8°C 97% Calm Calm -- 29.85 in1010.8 mb - 0.00 in0.0 mm 0.77 in19.6 mm
05:15 AM 72.2°F22.3°C 71.3°F21.8°C 97% Calm Calm -- 29.84 in1010.5 mb - 0.00 in0.0 mm 0.77 in19.6 mm
05:30 AM 72.2°F22.3°C 71.3°F21.8°C 97% Calm Calm -- 29.84 in1010.5 mb - 0.00 in0.0 mm 0.77 in19.6 mm
05:45 AM 72.3°F22.4°C 71.4°F21.9°C 97% Calm Calm -- 29.84 in1010.5 mb - 0.00 in0.0 mm 0.77 in19.6 mm
06:00 AM 72.4°F22.4°C 71.5°F21.9°C 97% Calm Calm -- 29.84 in1010.5 mb - 0.00 in0.0 mm 0.77 in19.6 mm
06:15 AM 72.5°F22.5°C 71.6°F22.0°C 97% Calm Calm -- 29.84 in1010.5 mb - 0.00 in0.0 mm 0.77 in19.6 mm
06:30 AM 72.7°F22.6°C 71.8°F22.1°C 97% Calm Calm -- 29.84 in1010.5 mb - 0.00 in0.0 mm 0.77 in19.6 mm
06:45 AM 72.9°F22.7°C 72.0°F22.2°C 97% Calm Calm -- 29.84 in1010.5 mb - 0.00 in0.0 mm 0.77 in19.6 mm
07:00 AM 73.3°F22.9°C 72.7°F22.6°C 98% Calm Calm -- 29.84 in1010.5 mb - 0.00 in0.0 mm 0.77 in19.6 mm
07:15 AM 73.9°F23.3°C 73.3°F22.9°C 98% Calm Calm -- 29.84 in1010.5 mb - 0.00 in0.0 mm 0.77 in19.6 mm
07:30 AM 74.3°F23.5°C 73.7°F23.2°C 98% Calm Calm -- 29.84 in1010.5 mb - 0.00 in0.0 mm 0.77 in19.6 mm
07:45 AM 74.9°F23.8°C 74.3°F23.5°C 98% Calm Calm -- 29.84 in1010.5 mb - 0.00 in0.0 mm 0.77 in19.6 mm
08:00 AM 75.1°F23.9°C 74.5°F23.6°C 98% Calm Calm -- 29.84 in1010.5 mb - 0.00 in0.0 mm 0.77 in19.6 mm
08:15 AM 75.1°F23.9°C 74.5°F23.6°C 98% Calm Calm -- 29.84 in1010.5 mb - 0.00 in0.0 mm 0.77 in19.6 mm
08:45 AM 75.6°F24.2°C 74.7°F23.7°C 97% Calm Calm -- 29.84 in1010.5 mb - 0.00 in0.0 mm 0.77 in19.6 mm
09:00 AM 75.7°F24.3°C 74.8°F23.8°C 97% Calm Calm -- 29.84 in1010.5 mb - 0.00 in0.0 mm 0.77 in19.6 mm
09:15 AM 75.7°F24.3°C 74.8°F23.8°C 97% Calm Calm -- 29.84 in1010.5 mb - 0.00 in0.0 mm 0.77 in19.6 mm
09:30 AM 75.8°F24.3°C 74.9°F23.8°C 97% Calm Calm -- 29.84 in1010.5 mb - 0.00 in0.0 mm 0.77 in19.6 mm
09:45 AM 75.8°F24.3°C 74.9°F23.8°C 97% Calm Calm -- 29.83 in1010.2 mb - 0.00 in0.0 mm 0.77 in19.6 mm
10:00 AM 76.0°F24.4°C 75.1°F23.9°C 97% Calm Calm -- 29.83 in1010.2 mb - 0.00 in0.0 mm 0.77 in19.6 mm
10:15 AM 76.2°F24.6°C 75.3°F24.1°C 97% 0.2 mph N0.3 kmh N -- 29.83 in1010.2 mb - 0.00 in0.0 mm 0.77 in19.6 mm
10:30 AM 76.6°F24.8°C 75.7°F24.3°C 97% Calm Calm -- 29.82 in1009.8 mb - 0.00 in0.0 mm 0.77 in19.6 mm
10:45 AM 77.5°F25.3°C 76.6°F24.8°C 97% 0.5 mph SE0.8 kmh SE 2.0 mph3.2 kmh 29.82 in1009.8 mb - 0.00 in0.0 mm 0.77 in19.6 mm
11:00 AM 78.9°F26.1°C 77.4°F25.2°C 95% Calm Calm -- 29.82 in1009.8 mb - 0.00 in0.0 mm 0.77 in19.6 mm
11:15 AM 80.3°F26.8°C 77.1°F25.1°C 90% 0.6 mph SE1.0 kmh SE 2.0 mph3.2 kmh 29.81 in1009.5 mb - 0.00 in0.0 mm 0.77 in19.6 mm
11:30 AM 82.2°F27.9°C 77.3°F25.2°C 85% 1.4 mph ESE2.3 kmh ESE 3.0 mph4.8 kmh 29.80 in1009.1 mb - 0.00 in0.0 mm 0.77 in19.6 mm
11:45 AM 83.6°F28.7°C 77.2°F25.1°C 81% 1.1 mph SSE1.8 kmh SSE 1.0 mph1.6 kmh 29.80 in1009.1 mb - 0.00 in0.0 mm 0.77 in19.6 mm
12:00 PM 83.8°F28.8°C 76.6°F24.8°C 79% 0.1 mph SE0.2 kmh SE 2.0 mph3.2 kmh 29.80 in1009.1 mb - 0.00 in0.0 mm 0.77 in19.6 mm
12:15 PM 84.0°F28.9°C 77.6°F25.3°C 81% 0.6 mph WNW1.0 kmh WNW 3.0 mph4.8 kmh 29.79 in1008.8 mb - 0.00 in0.0 mm 0.77 in19.6 mm
12:30 PM 85.0°F29.4°C 77.8°F25.4°C 79% 1.4 mph S2.3 kmh S 2.0 mph3.2 kmh 29.78 in1008.5 mb - 0.00 in0.0 mm 0.77 in19.6 mm
12:45 PM 85.0°F29.4°C 78.5°F25.8°C 81% Calm Calm 2.0 mph3.2 kmh 29.78 in1008.5 mb - 0.00 in0.0 mm 0.77 in19.6 mm
01:00 PM 85.9°F29.9°C 78.6°F25.9°C 79% 0.3 mph ESE0.5 kmh ESE 2.0 mph3.2 kmh 29.77 in1008.1 mb - 0.00 in0.0 mm 0.77 in19.6 mm
01:15 PM 85.7°F29.8°C 76.9°F24.9°C 75% 0.8 mph SSW1.3 kmh SSW 1.0 mph1.6 kmh 29.77 in1008.1 mb - 0.00 in0.0 mm 0.77 in19.6 mm
01:30 PM 85.2°F29.6°C 78.3°F25.7°C 80% 0.1 mph SSW0.2 kmh SSW 1.0 mph1.6 kmh 29.77 in1008.1 mb - 0.00 in0.0 mm 0.77 in19.6 mm
01:45 PM 85.5°F29.7°C 77.5°F25.3°C 77% 0.2 mph SE0.3 kmh SE 3.0 mph4.8 kmh 29.76 in1007.8 mb - 0.00 in0.0 mm 0.77 in19.6 mm
02:00 PM 86.6°F30.3°C 78.1°F25.6°C 76% 1.3 mph E2.1 kmh E 4.0 mph6.4 kmh 29.75 in1007.5 mb - 0.00 in0.0 mm 0.77 in19.6 mm
02:15 PM 86.6°F30.3°C 78.6°F25.9°C 77% 0.3 mph S0.5 kmh S 1.0 mph1.6 kmh 29.76 in1007.8 mb - 0.00 in0.0 mm 0.77 in19.6 mm
02:30 PM 85.9°F29.9°C 77.9°F25.5°C 77% Calm Calm -- 29.76 in1007.8 mb - 0.00 in0.0 mm 0.77 in19.6 mm
02:45 PM 84.8°F29.3°C 77.2°F25.1°C 78% 0.9 mph S1.4 kmh S 2.0 mph3.2 kmh 29.76 in1007.8 mb - 0.00 in0.0 mm 0.77 in19.6 mm
03:00 PM 84.1°F28.9°C 78.4°F25.8°C 83% Calm Calm -- 29.75 in1007.5 mb - 0.00 in0.0 mm 0.77 in19.6 mm
03:15 PM 83.5°F28.6°C 77.8°F25.4°C 83% Calm Calm 1.0 mph1.6 kmh 29.75 in1007.5 mb - 0.00 in0.0 mm 0.77 in19.6 mm
03:30 PM 83.0°F28.3°C 77.7°F25.4°C 84% 0.8 mph S1.3 kmh S 1.0 mph1.6 kmh 29.75 in1007.5 mb - 0.00 in0.0 mm 0.77 in19.6 mm
03:45 PM 80.3°F26.8°C 72.1°F22.3°C 76% 4.4 mph N7.1 kmh N 8.0 mph12.9 kmh 29.77 in1008.1 mb - 0.00 in0.0 mm 0.77 in19.6 mm
04:00 PM 77.8°F25.4°C 71.1°F21.7°C 80% 4.3 mph SW6.9 kmh SW 11.0 mph17.7 kmh 29.77 in1008.1 mb - 0.01 in0.3 mm 0.78 in19.8 mm
04:15 PM 75.7°F24.3°C 71.2°F21.8°C 86% 0.5 mph WSW0.8 kmh WSW 5.0 mph8.0 kmh 29.77 in1008.1 mb - 0.00 in0.0 mm 0.78 in19.8 mm
04:30 PM 74.3°F23.5°C 70.8°F21.6°C 89% 1.3 mph N2.1 kmh N 5.0 mph8.0 kmh 29.79 in1008.8 mb - 0.02 in0.5 mm 0.80 in20.3 mm
04:45 PM 73.9°F23.3°C 71.1°F21.7°C 91% 1.3 mph E2.1 kmh E 1.0 mph1.6 kmh 29.79 in1008.8 mb - 0.01 in0.3 mm 0.81 in20.6 mm
05:00 PM 73.7°F23.2°C 71.2°F21.8°C 92% 0.9 mph ENE1.4 kmh ENE 4.0 mph6.4 kmh 29.79 in1008.8 mb - 0.01 in0.3 mm 0.82 in20.8 mm
05:15 PM 73.6°F23.1°C 71.5°F21.9°C 93% Calm Calm 2.0 mph3.2 kmh 29.79 in1008.8 mb - 0.00 in0.0 mm 0.82 in20.8 mm
05:30 PM 73.7°F23.2°C 71.5°F21.9°C 93% 1.8 mph WSW2.9 kmh WSW 2.0 mph3.2 kmh 29.78 in1008.5 mb - 0.00 in0.0 mm 0.82 in20.8 mm
05:45 PM 73.6°F23.1°C 71.4°F21.9°C 93% Calm Calm -- 29.79 in1008.8 mb - 0.00 in0.0 mm 0.82 in20.8 mm
06:00 PM 73.5°F23.1°C 71.4°F21.9°C 93% 0.8 mph NNE1.3 kmh NNE 1.0 mph1.6 kmh 29.80 in1009.1 mb - 0.00 in0.0 mm 0.82 in20.8 mm
06:15 PM 73.3°F22.9°C 71.2°F21.8°C 93% Calm Calm -- 29.81 in1009.5 mb - 0.00 in0.0 mm 0.82 in20.8 mm
06:30 PM 73.1°F22.8°C 71.3°F21.8°C 94% 0.8 mph N1.3 kmh N 2.0 mph3.2 kmh 29.82 in1009.8 mb - 0.00 in0.0 mm 0.82 in20.8 mm
06:45 PM 72.9°F22.7°C 71.1°F21.7°C 94% 0.4 mph N0.6 kmh N -- 29.82 in1009.8 mb - 0.00 in0.0 mm 0.82 in20.8 mm
07:00 PM 72.7°F22.6°C 70.9°F21.6°C 94% Calm Calm -- 29.82 in1009.8 mb - 0.00 in0.0 mm 0.82 in20.8 mm
07:15 PM 72.6°F22.6°C 70.7°F21.5°C 94% Calm Calm -- 29.82 in1009.8 mb - 0.00 in0.0 mm 0.82 in20.8 mm
07:30 PM 72.4°F22.4°C 70.9°F21.6°C 95% Calm Calm -- 29.82 in1009.8 mb - 0.00 in0.0 mm 0.82 in20.8 mm
07:45 PM 72.2°F22.3°C 70.7°F21.5°C 95% Calm Calm -- 29.83 in1010.2 mb - 0.00 in0.0 mm 0.82 in20.8 mm
08:00 PM 72.1°F22.3°C 70.6°F21.4°C 95% Calm Calm -- 29.84 in1010.5 mb - 0.00 in0.0 mm 0.82 in20.8 mm
08:15 PM 72.0°F22.2°C 70.5°F21.4°C 95% Calm Calm -- 29.84 in1010.5 mb - 0.00 in0.0 mm 0.82 in20.8 mm
08:30 PM 72.0°F22.2°C 70.5°F21.4°C 95% Calm Calm -- 29.84 in1010.5 mb - 0.00 in0.0 mm 0.82 in20.8 mm
08:45 PM 72.1°F22.3°C 70.9°F21.6°C 96% Calm Calm -- 29.85 in1010.8 mb - 0.00 in0.0 mm 0.82 in20.8 mm
09:00 PM 72.1°F22.3°C 70.9°F21.6°C 96% 1.6 mph NNE2.6 kmh NNE 3.0 mph4.8 kmh 29.84 in1010.5 mb - 0.00 in0.0 mm 0.82 in20.8 mm
09:15 PM 71.3°F21.8°C 69.8°F21.0°C 95% 2.8 mph NNE4.5 kmh NNE 5.0 mph8.0 kmh 29.85 in1010.8 mb - 0.00 in0.0 mm 0.82 in20.8 mm
09:30 PM 70.2°F21.2°C 68.4°F20.2°C 94% 2.0 mph NNE3.2 kmh NNE 4.0 mph6.4 kmh 29.84 in1010.5 mb - 0.00 in0.0 mm 0.82 in20.8 mm
09:45 PM 69.6°F20.9°C 67.5°F19.7°C 93% 4.4 mph WNW7.1 kmh WNW 7.0 mph11.3 kmh 29.85 in1010.8 mb - 0.00 in0.0 mm 0.82 in20.8 mm
10:00 PM 69.2°F20.7°C 66.8°F19.3°C 92% 1.9 mph WSW3.1 kmh WSW 3.0 mph4.8 kmh 29.85 in1010.8 mb - 0.00 in0.0 mm 0.82 in20.8 mm
10:15 PM 69.0°F20.6°C 66.6°F19.2°C 92% 0.7 mph W1.1 kmh W 2.0 mph3.2 kmh 29.86 in1011.2 mb - 0.00 in0.0 mm 0.82 in20.8 mm
10:30 PM 68.7°F20.4°C 66.3°F19.1°C 92% 1.1 mph N1.8 kmh N 2.0 mph3.2 kmh 29.86 in1011.2 mb - 0.00 in0.0 mm 0.82 in20.8 mm
10:45 PM 68.5°F20.3°C 66.1°F18.9°C 92% 1.5 mph WSW2.4 kmh WSW 3.0 mph4.8 kmh 29.86 in1011.2 mb - 0.00 in0.0 mm 0.82 in20.8 mm
11:00 PM 68.3°F20.2°C 65.9°F18.8°C 92% 2.3 mph WSW3.7 kmh WSW 6.0 mph9.7 kmh 29.85 in1010.8 mb - 0.00 in0.0 mm 0.84 in21.3 mm
11:15 PM 68.3°F20.2°C 65.9°F18.8°C 92% 3.3 mph WSW5.3 kmh WSW 5.0 mph8.0 kmh 29.86 in1011.2 mb - 0.00 in0.0 mm 0.84 in21.3 mm
11:30 PM 68.3°F20.2°C 65.9°F18.8°C 92% 1.6 mph ENE2.6 kmh ENE 4.0 mph6.4 kmh 29.86 in1011.2 mb - 0.00 in0.0 mm 0.84 in21.3 mm
11:45 PM 68.3°F20.2°C 65.5°F18.6°C 91% 1.7 mph N2.7 kmh N 8.0 mph12.9 kmh 29.86 in1011.2 mb - 0.00 in0.0 mm 0.84 in21.3 mm